Chadstone Weather > Observations for 02/04/21

Select Day:



Observations
Time Temp Hum DP Wind Gust Dir Rain >9am Press
C % C kph kph mm hPa
00:00 18.6 66 12.1 0.0 0.0 N 0.0 1013.0
00:10 18.4 67 12.2 0.0 0.0 N 0.0 1013.1
00:20 18.2 68 12.2 0.0 0.0 N 0.0 1013.1
00:30 18.0 69 12.2 0.0 0.0 N 0.0 1013.2
00:40 17.8 71 12.5 0.0 0.0 N 0.0 1013.4
00:50 17.6 71 12.3 0.0 0.0 N 0.0 1013.3
01:00 17.5 72 12.4 0.0 0.0 N 0.0 1013.3
01:10 17.3 72 12.2 0.0 0.0 N 0.0 1013.4
01:20 17.1 72 12.0 0.0 0.0 N 0.0 1013.5
01:30 16.9 74 12.2 0.0 0.0 N 0.0 1013.5
01:40 16.8 74 12.1 0.0 0.0 N 0.0 1013.5
01:50 16.7 75 12.3 0.0 0.0 N 0.0 1013.7
02:00 16.6 75 12.2 0.0 0.0 N 0.0 1013.6
02:10 16.4 75 12.0 0.0 0.0 N 0.0 1013.7
02:20 16.2 76 12.0 0.0 0.0 N 0.0 1013.6
02:30 16.1 76 11.9 0.0 0.0 N 0.0 1013.7
02:40 16.0 77 12.0 0.0 0.0 N 0.0 1013.6
02:50 15.8 78 12.0 0.0 0.0 N 0.0 1013.6
03:00 15.8 78 12.0 0.0 0.0 N 0.0 1013.7
03:10 15.7 79 12.1 0.0 0.0 N 0.0 1013.7
03:20 15.5 79 11.9 0.0 0.0 N 0.0 1013.6
03:30 15.3 80 11.9 0.0 0.0 N 0.0 1013.6
03:40 15.2 80 11.8 0.0 0.0 N 0.0 1013.5
03:50 15.1 81 11.9 0.0 0.0 N 0.0 1013.5
04:00 15.0 81 11.8 0.0 0.0 N 0.0 1013.5
04:10 14.9 83 12.0 0.0 0.0 N 0.0 1013.4
04:20 14.8 84 12.1 0.0 0.0 N 0.0 1013.2
04:30 14.8 84 12.1 0.0 0.0 N 0.0 1013.2
04:40 14.6 84 11.9 0.0 0.0 N 0.0 1013.3
04:50 14.6 84 11.9 0.0 0.0 N 0.0 1013.3
05:00 14.5 84 11.8 0.0 0.0 N 0.0 1013.6
05:10 14.5 84 11.8 0.0 0.0 N 0.0 1013.6
05:20 14.5 85 12.0 0.0 0.0 N 0.0 1013.5
05:30 14.5 85 12.0 0.0 0.0 N 0.0 1013.6
05:40 14.6 85 12.1 0.0 0.0 N 0.0 1013.7
05:50 14.6 85 12.1 0.0 0.0 N 0.0 1013.8
06:00 14.7 85 12.2 0.0 0.0 N 0.0 1013.9
06:10 14.8 86 12.5 0.0 0.0 N 0.0 1014.1
06:20 14.8 85 12.3 0.0 0.0 N 0.0 1014.1
06:30 14.9 85 12.4 0.0 0.0 N 0.0 1014.2
06:40 15.0 84 12.3 0.0 0.0 N 0.0 1014.4
06:50 15.0 84 12.3 0.0 0.0 N 0.0 1014.3
07:00 15.0 84 12.3 0.0 0.0 N 0.0 1014.6
07:10 15.0 84 12.3 0.0 0.0 N 0.0 1014.7
07:20 14.9 85 12.4 0.0 0.0 N 0.0 1014.9
07:30 14.7 85 12.2 0.0 0.0 N 0.0 1014.9
07:40 14.7 85 12.2 0.0 0.0 N 0.0 1015.1
07:50 14.6 85 12.1 0.0 0.0 N 0.0 1015.2
08:00 14.5 85 12.0 0.0 0.0 N 0.0 1015.3
08:10 14.6 85 12.1 0.0 0.0 N 0.0 1015.2
08:20 14.8 85 12.3 0.0 0.0 N 0.0 1015.4
08:30 15.0 84 12.3 0.0 0.0 N 0.0 1015.5
08:40 15.3 83 12.4 0.0 0.0 N 0.0 1015.6
08:50 15.6 83 12.7 0.0 0.0 N 0.0 1015.6
09:00 16.0 81 12.7 0.0 0.0 N 0.0 1015.5
09:10 16.3 80 12.9 0.0 0.0 N 0.0 1015.7
09:20 16.8 79 13.1 0.0 0.0 N 0.0 1015.9
09:30 17.3 76 13.0 0.0 0.0 N 0.0 1015.8
09:40 17.9 74 13.2 0.0 0.0 N 0.0 1015.8
09:50 18.5 73 13.6 0.0 0.0 N 0.0 1015.7
10:00 19.0 70 13.4 0.0 0.0 N 0.0 1015.7
10:10 19.6 69 13.8 0.0 0.0 N 0.0 1015.7
10:20 20.3 67 14.0 0.0 0.0 N 0.0 1015.7
10:30 20.9 65 14.1 0.0 0.0 N 0.0 1015.7
10:40 21.4 62 13.8 0.0 0.0 N 0.0 1015.7
10:50 21.9 61 14.1 0.0 0.0 N 0.0 1016.5
11:00 22.6 57 13.7 0.0 0.0 N 0.0 1016.2
11:10 23.2 54 13.4 0.0 0.0 N 0.0 1016.0
11:20 23.7 52 13.3 0.0 0.0 N 0.0 1016.0
11:30 24.0 50 13.0 0.0 0.0 N 0.0 1015.9
11:40 24.7 48 13.0 0.0 0.0 N 0.0 1015.8
11:50 25.3 45 12.5 0.0 0.0 N 0.0 1015.7
12:00 25.7 45 12.9 0.0 0.0 N 0.0 1015.6
12:10 26.3 43 12.7 0.0 0.0 N 0.0 1015.4
12:20 26.6 42 12.7 0.0 0.0 N 0.0 1015.1
12:30 27.1 41 12.7 0.0 0.0 N 0.0 1015.1
12:40 27.6 41 13.2 0.0 0.0 N 0.0 1014.9
12:50 28.0 40 13.2 0.0 0.0 N 0.0 1014.7
13:00 28.4 41 13.9 0.0 0.0 N 0.0 1014.5
13:10 28.9 38 13.2 0.0 0.0 N 0.0 1014.4
13:20 29.1 36 12.5 0.0 0.0 N 0.0 1014.3
13:30 29.2 34 11.8 0.0 0.0 N 0.0 1014.2
13:40 29.5 34 12.0 0.0 0.0 N 0.0 1013.9
13:50 29.8 35 12.7 0.0 0.0 N 0.0 1013.9
14:00 30.1 32 11.6 0.0 0.0 N 0.0 1013.6
14:10 30.1 31 11.1 0.0 0.0 N 0.0 1013.5
14:20 30.4 31 11.4 0.0 0.0 N 0.0 1013.3
14:30 30.3 28 9.8 0.0 0.0 N 0.0 1013.0
14:40 30.4 30 10.9 0.0 0.0 N 0.0 1012.9
14:50 30.4 28 9.9 0.0 0.0 N 0.0 1012.7
15:00 30.3 29 10.3 0.0 0.0 N 0.0 1012.6
15:10 30.5 27 9.4 0.0 0.0 N 0.0 1012.6
15:20 30.5 27 9.4 0.0 0.0 N 0.0 1012.4
15:30 30.7 27 9.6 0.0 0.0 N 0.0 1012.3
15:40 30.6 29 10.6 0.0 0.0 N 0.0 1012.2
15:50 30.4 30 10.9 0.0 0.0 N 0.0 1012.1
16:00 30.2 31 11.2 0.0 0.0 N 0.0 1012.2
16:10 30.2 30 10.7 0.0 1.1 S 0.0 1012.0
16:20 30.1 31 11.1 0.0 0.0 N 0.0 1012.1
16:30 30.0 31 11.1 0.0 0.0 N 0.0 1012.0
16:40 30.0 31 11.1 0.0 0.0 N 0.0 1012.1
16:50 30.0 31 11.1 0.0 0.0 N 0.0 1011.9
17:00 30.0 31 11.1 0.0 0.0 N 0.0 1012.0
17:10 29.8 32 11.4 0.0 0.0 N 0.0 1012.1
17:20 29.6 32 11.2 0.0 1.1 S 0.0 1012.0
17:30 29.4 31 10.5 0.0 0.0 N 0.0 1012.1
17:40 29.3 32 10.9 0.0 0.0 N 0.0 1012.1
17:50 29.2 33 11.3 0.0 0.0 N 0.0 1012.1
18:00 29.0 33 11.1 0.0 0.0 N 0.0 1012.0
18:10 28.7 34 11.3 0.0 0.0 N 0.0 1012.1
18:20 28.4 35 11.5 0.0 0.0 N 0.0 1012.1
18:30 28.2 36 11.7 0.0 0.0 N 0.0 1012.1
18:40 27.6 37 11.6 0.0 0.0 N 0.0 1012.2
18:50 27.0 38 11.5 0.0 0.0 N 0.0 1012.2
19:00 26.3 42 12.4 0.0 0.0 N 0.0 1012.1
19:10 25.8 44 12.6 0.0 0.0 N 0.0 1012.1
19:20 25.3 45 12.5 0.0 0.0 N 0.0 1012.1
19:30 24.7 47 12.6 0.0 0.0 N 0.0 1012.1
19:40 24.3 47 12.3 0.0 0.0 N 0.0 1012.1
19:50 24.1 47 12.1 0.0 0.0 N 0.0 1011.9
20:00 24.1 47 12.1 0.0 0.0 N 0.0 1011.9
20:10 24.3 46 12.0 0.0 0.0 N 0.0 1012.1
20:20 24.2 46 11.9 0.0 0.0 N 0.0 1012.3
20:30 24.2 45 11.5 0.0 0.0 N 0.0 1012.5
20:40 24.1 45 11.4 0.0 0.0 N 0.0 1012.5
20:50 23.9 47 11.9 0.0 0.0 N 0.0 1012.7
21:00 23.9 47 11.9 0.0 0.0 N 0.0 1012.9
21:10 23.8 47 11.8 0.0 0.0 N 0.0 1012.9
21:20 23.6 47 11.6 0.0 0.0 N 0.0 1013.0
21:30 23.4 48 11.8 0.0 0.0 N 0.0 1013.2
21:40 23.0 50 12.0 0.0 0.0 N 0.0 1013.4
21:50 22.8 51 12.2 0.0 0.0 N 0.0 1013.4
22:00 22.5 52 12.2 0.0 0.0 N 0.0 1013.6
22:10 22.2 53 12.2 0.0 0.0 N 0.0 1013.6
22:20 22.1 54 12.4 0.0 0.0 N 0.0 1013.5
22:30 21.6 57 12.7 0.0 0.0 N 0.0 1013.6
22:40 21.1 58 12.5 0.0 0.0 N 0.0 1013.6
22:50 20.9 60 12.9 0.0 0.0 N 0.0 1013.6
23:00 21.0 59 12.7 0.0 0.0 N 0.0 1013.7
23:10 21.4 58 12.8 0.0 0.0 N 0.0 1013.6
23:20 21.6 58 13.0 0.0 0.0 N 0.0 1013.6
23:30 21.5 59 13.2 0.0 0.0 N 0.0 1013.8
23:40 21.4 61 13.6 0.0 0.0 N 0.0 1013.7
23:50 21.4 61 13.6 0.0 0.0 N 0.0 1013.6